Time;durP1;ratioP1;P1;durP2;ratioP2;P2;SDS_P1;SDS_P2;PMS_P1;PMS_P2;Temp;Humidity;BMP_temperature;BMP_pressure;BME280_temperature;BME280_humidity;BME280_pressure;Samples;Min_cycle;Max_cycle;Signal;HPM_P1;HPM_P2
2022/04/07 00:00:01;;;;;;;11.30;9.20;;;;;;;8.88;76.82;98698.80;88220;1274;94863;-76
2022/04/07 00:02:30;;;;;;;12.10;9.00;;;;;;;8.87;76.81;98694.61;88208;1274;82357;-71
2022/04/07 00:04:42;;;;;;;12.80;8.90;;;;;;;8.85;76.88;98688.30;88224;1273;83138;-70
2022/04/07 00:06:51;;;;;;;12.30;8.70;;;;;;;8.82;76.86;98684.60;88216;1274;99445;-70
2022/04/07 00:09:03;;;;;;;11.10;8.40;;;;;;;8.79;76.73;98682.84;88203;1274;87557;-69
2022/04/07 00:11:16;;;;;;;13.50;8.70;;;;;;;8.76;76.73;98678.11;88218;1274;95354;-70
2022/04/07 00:13:25;;;;;;;12.50;8.70;;;;;;;8.74;76.73;98679.91;88208;1274;81478;-76
2022/04/07 00:15:34;;;;;;;12.50;8.00;;;;;;;8.74;76.71;98678.58;88198;1274;82827;-75
2022/04/07 00:17:43;;;;;;;12.70;8.40;;;;;;;8.75;76.85;98675.22;88158;1274;100373;-69
2022/04/07 00:19:55;;;;;;;13.60;8.60;;;;;;;8.74;76.84;98677.88;88222;1274;88974;-70
2022/04/07 00:22:08;;;;;;;13.10;8.90;;;;;;;8.79;76.78;98674.85;88218;1274;95568;-70
2022/04/07 00:24:17;;;;;;;12.00;8.60;;;;;;;8.80;76.82;98668.91;88191;1274;77558;-70
2022/04/07 00:26:27;;;;;;;13.30;8.20;;;;;;;8.81;76.86;98668.91;88192;1274;82426;-71
2022/04/07 00:28:36;;;;;;;10.20;8.30;;;;;;;8.82;76.80;98664.56;88213;1275;97168;-74
2022/04/07 00:30:45;;;;;;;10.20;8.40;;;;;;;8.78;76.62;98663.15;88181;1274;86817;-74
2022/04/07 00:32:57;;;;;;;10.50;7.70;;;;;;;8.72;76.69;98659.46;88143;1274;95134;-71
2022/04/07 00:35:08;;;;;;;12.00;8.10;;;;;;;8.70;76.77;98653.95;88192;1274;80085;-71
2022/04/07 00:37:17;;;;;;;10.50;7.80;;;;;;;8.66;76.69;98655.87;88257;1274;80077;-72
2022/04/07 00:39:26;;;;;;;11.90;7.20;;;;;;;8.64;76.68;98652.62;88178;1275;98116;-71
2022/04/07 00:41:39;;;;;;;10.70;7.80;;;;;;;8.65;76.70;98651.09;88193;1274;89260;-71
2022/04/07 00:43:52;;;;;;;12.20;7.60;;;;;;;8.63;76.70;98648.65;88236;1275;95808;-76
2022/04/07 00:46:01;;;;;;;11.80;7.90;;;;;;;8.64;76.77;98646.90;88179;1274;78274;-75
2022/04/07 00:48:11;;;;;;;10.50;7.50;;;;;;;8.62;76.64;98640.58;88262;1274;80898;-77
2022/04/07 00:50:24;;;;;;;10.50;7.10;;;;;;;8.61;76.68;98639.88;88226;1274;98238;-76
2022/04/07 00:52:38;;;;;;;14.90;8.60;;;;;;;8.61;76.66;98638.52;88210;1274;87402;-76
2022/04/07 00:54:45;;;;;;;;;;;;;;;8.58;76.55;98637.17;88197;1274;95855;-77
2022/04/07 00:57:00;;;;;;;10.90;7.80;;;;;;;8.55;76.71;98635.25;88189;1275;79673;-77
2022/04/07 00:59:12;;;;;;;9.50;7.00;;;;;;;8.50;76.70;98635.13;88125;1276;82781;-75
2022/04/07 01:01:22;;;;;;;9.90;7.00;;;;;;;8.48;76.71;98632.59;88186;1274;97743;-75
2022/04/07 01:03:31;;;;;;;12.60;7.40;;;;;;;8.45;76.74;98629.29;88246;1274;87689;-75
2022/04/07 01:05:41;;;;;;;10.90;6.80;;;;;;;8.46;76.69;98628.08;88178;1274;95926;-75
2022/04/07 01:07:51;;;;;;;10.00;7.50;;;;;;;8.47;76.83;98625.42;88181;1274;80532;-75
2022/04/07 01:10:00;;;;;;;9.70;7.30;;;;;;;8.53;76.82;98629.15;88162;1274;82889;-76
2022/04/07 01:12:12;;;;;;;11.60;7.40;;;;;;;8.53;76.97;98623.56;88184;1274;99382;-75
2022/04/07 01:14:22;;;;;;;11.80;8.20;;;;;;;8.57;76.88;98620.95;88240;1274;87626;-76
2022/04/07 01:16:32;;;;;;;10.40;7.20;;;;;;;8.59;76.87;98616.83;88184;1274;96030;-75
2022/04/07 01:18:41;;;;;;;10.70;7.60;;;;;;;8.63;76.88;98617.96;88215;1274;79534;-76
2022/04/07 01:20:53;;;;;;;9.90;7.40;;;;;;;8.64;76.75;98614.23;88229;1273;82989;-76
2022/04/07 01:23:07;;;;;;;11.90;7.30;;;;;;;8.64;76.76;98612.77;88198;1274;98875;-71
2022/04/07 01:25:17;;;;;;;11.20;7.40;;;;;;;8.61;76.73;98610.15;88159;1274;87983;-71
2022/04/07 01:27:25;;;;;;;9.80;6.70;;;;;;;8.59;76.72;98609.06;88185;1274;91851;-72
2022/04/07 01:29:34;;;;;;;11.50;7.20;;;;;;;8.60;76.71;98604.35;88147;1277;80792;-71
2022/04/07 01:31:43;;;;;;;10.40;6.60;;;;;;;8.63;76.69;98606.04;88223;1274;81992;-70
2022/04/07 01:33:57;;;;;;;11.20;6.80;;;;;;;8.65;76.81;98603.29;88203;1274;99754;-71
2022/04/07 01:36:06;;;;;;;9.60;6.60;;;;;;;8.68;76.78;98604.50;88185;1274;87591;-69
2022/04/07 01:38:16;;;;;;;10.90;6.90;;;;;;;8.70;76.80;98602.61;88218;1274;95754;-71
2022/04/07 01:40:29;;;;;;;8.70;6.60;;;;;;;8.70;76.72;98606.19;88179;1275;78802;-71
2022/04/07 01:42:39;;;;;;;8.80;6.10;;;;;;;8.72;76.73;98606.78;88204;1275;82108;-71
2022/04/07 01:44:55;;;;;;;10.80;7.50;;;;;;;8.70;76.73;98600.92;88088;1277;100284;-71
2022/04/07 01:47:09;;;;;;;10.70;7.30;;;;;;;8.69;76.62;98599.65;88197;1274;86970;-71
2022/04/07 01:49:20;;;;;;;11.40;6.30;;;;;;;8.67;76.63;98597.60;88159;1274;95421;-70
2022/04/07 01:51:30;;;;;;;9.80;6.20;;;;;;;8.68;76.59;98599.73;88205;1274;79718;-71
2022/04/07 01:53:41;;;;;;;10.10;6.60;;;;;;;8.72;76.60;98594.91;88167;1275;83289;-74
2022/04/07 01:55:51;;;;;;;8.70;6.30;;;;;;;8.74;76.66;98594.55;88179;1274;98459;-75
2022/04/07 01:58:01;;;;;;;10.70;6.70;;;;;;;8.78;76.63;98591.52;88220;1275;89403;-70
2022/04/07 02:00:16;;;;;;;10.20;6.50;;;;;;;8.79;76.52;98590.59;88223;1274;94369;-72
2022/04/07 02:02:25;;;;;;;9.70;6.90;;;;;;;8.79;76.53;98591.02;88196;1275;78499;-73
2022/04/07 02:04:34;;;;;;;10.60;7.20;;;;;;;8.76;76.57;98590.92;88194;1274;82761;-74
2022/04/07 02:06:43;;;;;;;10.60;7.30;;;;;;;8.75;76.46;98591.77;88221;1274;99291;-74
2022/04/07 02:08:52;;;;;;;9.00;6.60;;;;;;;8.73;76.55;98588.15;88229;1274;89269;-71
2022/04/07 02:11:01;;;;;;;10.30;6.90;;;;;;;8.70;76.45;98585.84;88215;1274;95725;-72
2022/04/07 02:13:13;;;;;;;7.90;6.50;;;;;;;8.69;76.49;98584.04;88176;1275;82162;-75
2022/04/07 02:15:26;;;;;;;8.90;6.30;;;;;;;8.67;76.66;98583.11;88168;1274;81149;-76
2022/04/07 02:17:37;;;;;;;8.80;6.30;;;;;;;8.71;76.69;98584.52;88130;1277;98680;-75
2022/04/07 02:19:47;;;;;;;8.20;6.00;;;;;;;8.75;76.59;98583.81;88199;1274;89198;-75
2022/04/07 02:21:57;;;;;;;10.30;6.60;;;;;;;8.78;76.65;98580.13;88180;1275;93619;-74
2022/04/07 02:24:08;;;;;;;10.30;6.50;;;;;;;8.79;76.62;98582.77;88179;1275;78194;-73
2022/04/07 02:26:19;;;;;;;8.70;6.60;;;;;;;8.78;76.60;98574.38;88192;1274;81755;-74
2022/04/07 02:28:28;;;;;;;11.20;6.30;;;;;;;8.76;76.54;98573.44;88202;1274;97037;-73
2022/04/07 02:30:37;;;;;;;12.10;6.90;;;;;;;8.73;76.49;98570.65;88152;1277;88746;-73
2022/04/07 02:32:48;;;;;;;10.50;6.30;;;;;;;8.69;76.44;98566.81;88125;1276;93565;-74
2022/04/07 02:34:57;;;;;;;9.30;6.40;;;;;;;8.62;76.45;98569.29;88131;1276;82529;-73
2022/04/07 02:37:10;;;;;;;11.20;6.60;;;;;;;8.61;76.55;98566.60;88157;1277;81077;-74
2022/04/07 02:39:20;;;;;;;10.40;7.00;;;;;;;8.60;76.67;98557.42;88128;1276;99043;-75
2022/04/07 02:41:31;;;;;;;9.60;6.80;;;;;;;8.62;76.76;98554.26;88164;1274;88410;-74
2022/04/07 02:43:40;;;;;;;10.10;6.20;;;;;;;8.64;76.78;98549.38;88150;1277;95259;-74
2022/04/07 02:45:49;;;;;;;10.70;6.80;;;;;;;8.64;76.75;98545.44;88147;1276;81228;-73
2022/04/07 02:47:59;;;;;;;10.40;7.00;;;;;;;8.64;76.79;98546.39;88197;1276;82573;-74
2022/04/07 02:50:13;;;;;;;11.70;7.40;;;;;;;8.64;76.84;98545.45;88191;1274;99244;-72
2022/04/07 02:52:22;;;;;;;9.70;7.10;;;;;;;8.62;76.91;98544.67;88157;1276;88362;-74
2022/04/07 02:54:32;;;;;;;9.30;6.70;;;;;;;8.61;76.81;98541.83;88107;1276;96183;-74
2022/04/07 02:56:43;;;;;;;11.30;6.70;;;;;;;8.57;76.82;98538.55;88176;1274;80700;-74
2022/04/07 02:58:56;;;;;;;8.90;7.10;;;;;;;8.53;76.78;98534.16;88213;1274;83091;-73
2022/04/07 03:01:05;;;;;;;13.50;7.20;;;;;;;8.50;76.87;98532.95;88188;1274;99994;-72
2022/04/07 03:03:14;;;;;;;9.30;6.50;;;;;;;8.49;76.83;98525.38;88170;1274;88982;-75
2022/04/07 03:05:27;;;;;;;9.40;6.50;;;;;;;8.51;76.88;98523.02;88198;1274;94510;-76
2022/04/07 03:07:37;;;;;;;10.90;6.90;;;;;;;8.51;76.96;98520.70;88116;1277;78930;-73
2022/04/07 03:09:47;;;;;;;11.50;7.70;;;;;;;8.50;77.04;98523.43;88201;1274;82881;-73
2022/04/07 03:11:59;;;;;;;9.70;7.50;;;;;;;8.52;77.04;98525.19;87879;1274;97317;-73
2022/04/07 03:14:08;;;;;;;11.00;7.70;;;;;;;8.49;77.08;98525.30;88209;1272;87291;-73
2022/04/07 03:16:18;;;;;;;10.90;7.20;;;;;;;8.48;77.00;98521.51;88195;1274;93954;-75
2022/04/07 03:18:28;;;;;;;12.00;8.30;;;;;;;8.47;77.11;98520.73;88245;1274;78420;-73
2022/04/07 03:20:37;;;;;;;10.70;7.40;;;;;;;8.43;77.06;98524.88;88184;1274;83316;-72
2022/04/07 03:22:46;;;;;;;9.30;7.10;;;;;;;8.39;77.10;98528.87;88194;1274;99326;-75
2022/04/07 03:24:56;;;;;;;10.40;7.40;;;;;;;8.39;77.10;98525.20;88109;1277;88639;-75
2022/04/07 03:27:07;;;;;;;11.90;7.10;;;;;;;8.33;77.24;98528.27;88190;1274;94995;-73
2022/04/07 03:29:17;;;;;;;12.30;7.80;;;;;;;8.33;77.29;98522.89;88191;1274;81654;-75
2022/04/07 03:31:26;;;;;;;11.20;7.50;;;;;;;8.36;77.27;98520.30;88189;1274;82386;-73
2022/04/07 03:33:35;;;;;;;10.60;7.50;;;;;;;8.41;77.38;98523.39;88162;1274;100057;-73
2022/04/07 03:35:45;;;;;;;10.70;7.90;;;;;;;8.42;77.38;98519.79;88154;1276;89435;-74
2022/04/07 03:37:54;;;;;;;14.90;8.20;;;;;;;8.42;77.28;98519.09;88106;1276;96158;-74
2022/04/07 03:40:03;;;;;;;11.10;8.00;;;;;;;8.40;77.25;98515.95;88137;1276;80868;-74
2022/04/07 03:42:13;;;;;;;10.90;8.10;;;;;;;8.37;77.17;98515.08;88193;1276;81905;-73
2022/04/07 03:44:22;;;;;;;15.40;8.20;;;;;;;8.28;77.16;98518.30;88141;1276;99010;-73
2022/04/07 03:46:34;;;;;;;10.90;7.90;;;;;;;8.19;77.12;98516.69;88135;1276;88652;-73
2022/04/07 03:48:46;;;;;;;10.50;7.50;;;;;;;8.13;77.16;98517.19;88147;1276;96041;-73
2022/04/07 03:50:56;;;;;;;11.30;7.30;;;;;;;8.08;77.24;98517.95;88154;1276;81856;-73
2022/04/07 03:53:06;;;;;;;11.40;6.90;;;;;;;8.05;77.35;98516.17;88201;1274;80293;-73
2022/04/07 03:55:22;;;;;;;11.20;7.50;;;;;;;8.04;77.42;98519.16;88195;1274;98762;-73
2022/04/07 03:57:32;;;;;;;11.90;8.00;;;;;;;8.03;77.58;98518.43;88161;1274;87971;-73
2022/04/07 03:59:42;;;;;;;10.50;7.20;;;;;;;8.01;77.45;98523.42;88160;1274;95701;-74
2022/04/07 04:01:52;;;;;;;10.90;7.60;;;;;;;7.98;77.52;98524.88;88180;1274;78124;-74
2022/04/07 04:04:02;;;;;;;12.30;8.30;;;;;;;7.98;77.46;98520.59;88224;1274;81780;-75
2022/04/07 04:06:14;;;;;;;10.60;7.90;;;;;;;7.99;77.70;98520.37;88119;1276;99868;-75
2022/04/07 04:08:23;;;;;;;12.60;8.20;;;;;;;7.98;77.70;98527.61;88212;1274;85736;-75
2022/04/07 04:10:32;;;;;;;11.30;7.70;;;;;;;7.96;77.70;98525.60;88188;1274;94380;-75
2022/04/07 04:12:41;;;;;;;11.10;8.50;;;;;;;7.95;77.77;98530.08;88131;1276;80228;-74
2022/04/07 04:14:54;;;;;;;12.40;7.90;;;;;;;7.96;77.80;98525.61;88193;1274;80942;-75
2022/04/07 04:17:06;;;;;;;13.80;8.80;;;;;;;8.02;77.78;98531.02;88149;1276;98531;-74
2022/04/07 04:19:16;;;;;;;10.70;7.60;;;;;;;8.06;77.84;98529.27;88134;1276;88536;-73
2022/04/07 04:21:25;;;;;;;15.10;7.90;;;;;;;8.09;77.79;98528.52;88159;1276;93880;-73
2022/04/07 04:23:38;;;;;;;14.70;9.30;;;;;;;8.13;77.82;98529.98;88164;1276;77713;-75
2022/04/07 04:25:47;;;;;;;12.00;8.40;;;;;;;8.16;77.69;98530.08;88147;1276;81857;-74
2022/04/07 04:28:00;;;;;;;12.20;8.70;;;;;;;8.16;77.71;98530.73;88165;1276;97775;-75
2022/04/07 04:30:15;;;;;;;11.80;8.10;;;;;;;8.17;77.76;98533.83;88166;1277;88750;-75
2022/04/07 04:32:24;;;;;;;11.40;7.70;;;;;;;8.21;77.72;98537.27;88175;1274;93915;-74
2022/04/07 04:34:33;;;;;;;11.90;8.60;;;;;;;8.26;77.71;98538.08;88174;1274;79892;-74
2022/04/07 04:36:43;;;;;;;12.10;8.50;;;;;;;8.33;77.78;98536.80;88199;1274;82403;-73
2022/04/07 04:38:55;;;;;;;12.90;8.10;;;;;;;8.42;77.74;98533.23;88120;1276;99513;-76
2022/04/07 04:41:06;;;;;;;12.50;8.60;;;;;;;8.55;77.73;98532.98;88149;1276;88709;-75
2022/04/07 04:43:15;;;;;;;11.30;8.20;;;;;;;8.67;77.63;98532.66;88173;1274;94581;-73
2022/04/07 04:45:27;;;;;;;12.10;8.40;;;;;;;8.74;77.62;98534.82;88096;1277;78902;-74
2022/04/07 04:47:38;;;;;;;13.40;8.40;;;;;;;8.84;77.40;98535.77;88191;1274;82161;-75
2022/04/07 04:49:49;;;;;;;13.70;9.00;;;;;;;8.98;77.30;98540.82;88202;1274;97539;-72
2022/04/07 04:51:58;;;;;;;12.80;9.00;;;;;;;9.12;77.17;98539.30;88186;1274;87126;-74
2022/04/07 04:54:13;;;;;;;11.50;8.30;;;;;;;9.36;76.97;98538.57;88180;1274;95860;-75
2022/04/07 04:56:22;;;;;;;13.70;9.10;;;;;;;9.59;76.67;98535.13;88160;1276;80908;-74
2022/04/07 04:58:34;;;;;;;11.50;8.30;;;;;;;9.71;76.28;98530.60;88153;1276;82605;-73
2022/04/07 05:00:43;;;;;;;12.20;8.30;;;;;;;9.71;76.09;98529.02;88123;1276;98431;-73
2022/04/07 05:02:52;;;;;;;13.50;8.90;;;;;;;9.70;75.88;98529.48;88248;1274;87954;-73
2022/04/07 05:05:07;;;;;;;12.50;8.30;;;;;;;9.71;75.97;98530.59;88194;1276;92278;-75
2022/04/07 05:07:16;;;;;;;13.00;9.60;;;;;;;9.75;75.80;98526.89;88155;1276;80308;-73
2022/04/07 05:09:25;;;;;;;14.20;8.80;;;;;;;9.84;75.70;98525.89;88144;1276;82814;-73
2022/04/07 05:11:34;;;;;;;12.50;8.80;;;;;;;10.03;75.64;98527.72;88147;1276;96328;-73
2022/04/07 05:13:44;;;;;;;13.50;10.00;;;;;;;10.43;75.56;98524.55;88165;1276;87808;-74
2022/04/07 05:15:52;;;;;;;12.60;9.00;;;;;;;10.92;75.32;98520.55;88150;1276;94426;-73
2022/04/07 05:18:06;;;;;;;11.40;8.60;;;;;;;11.31;74.90;98516.16;88105;1276;81474;-75
2022/04/07 05:20:19;;;;;;;12.30;8.20;;;;;;;11.60;74.46;98520.48;88188;1274;81493;-75
2022/04/07 05:22:28;;;;;;;11.60;8.50;;;;;;;12.27;74.32;98513.96;88175;1274;99334;-72
2022/04/07 05:24:37;;;;;;;12.20;9.40;;;;;;;12.87;73.23;98512.50;88207;1274;88447;-73
2022/04/07 05:26:46;;;;;;;13.20;9.30;;;;;;;13.45;72.46;98508.16;88056;1277;96393;-73
2022/04/07 05:28:55;;;;;;;12.00;8.70;;;;;;;14.06;71.73;98505.16;88239;1274;77489;-73
2022/04/07 05:31:04;;;;;;;15.80;11.00;;;;;;;14.35;71.02;98510.21;88134;1276;81949;-72
2022/04/07 05:33:13;;;;;;;12.40;9.30;;;;;;;14.74;70.22;98502.52;88176;1274;98502;-72
2022/04/07 05:35:26;;;;;;;13.60;9.00;;;;;;;14.89;69.57;98504.35;88200;1274;88732;-73
2022/04/07 05:37:35;;;;;;;12.90;8.40;;;;;;;14.89;68.55;98500.32;88170;1274;93523;-74
2022/04/07 05:39:44;;;;;;;11.70;8.60;;;;;;;14.63;67.48;98502.72;88196;1274;80762;-75
2022/04/07 05:41:53;;;;;;;13.10;9.00;;;;;;;14.39;67.41;98505.75;88154;1276;83092;-74
2022/04/07 05:44:02;;;;;;;12.20;7.80;;;;;;;14.48;67.27;98511.95;88130;1276;98788;-72
2022/04/07 05:46:11;;;;;;;9.40;7.20;;;;;;;14.73;67.11;98507.35;88196;1274;88546;-73
2022/04/07 05:48:22;;;;;;;11.60;7.70;;;;;;;15.04;65.86;98507.37;88150;1276;93398;-74
2022/04/07 05:50:31;;;;;;;9.60;7.60;;;;;;;15.30;65.74;98497.27;88123;1276;81198;-73
2022/04/07 05:52:44;;;;;;;10.90;7.20;;;;;;;16.14;65.54;98496.39;88098;1277;83107;-73
2022/04/07 05:54:56;;;;;;;13.40;8.80;;;;;;;16.87;64.34;98489.73;88099;1277;101114;-74
2022/04/07 05:57:06;;;;;;;9.70;7.60;;;;;;;16.62;63.26;98484.42;88094;1276;88119;-74
2022/04/07 05:59:16;;;;;;;17.80;8.60;;;;;;;16.15;62.96;98483.77;88129;1276;94999;-73
2022/04/07 06:01:26;;;;;;;9.30;7.10;;;;;;;15.87;62.73;98480.57;88133;1276;78883;-74
2022/04/07 06:03:36;;;;;;;9.90;7.10;;;;;;;15.76;62.75;98478.11;88160;1274;80765;-75
2022/04/07 06:05:45;;;;;;;10.00;6.10;;;;;;;16.13;62.45;98477.39;88148;1276;98429;-73
2022/04/07 06:08:00;;;;;;;8.50;6.40;;;;;;;16.86;62.03;98474.34;88157;1276;88449;-74
2022/04/07 06:10:13;;;;;;;7.40;6.10;;;;;;;17.68;60.47;98469.05;88195;1274;93694;-74
2022/04/07 06:12:23;;;;;;;9.50;5.70;;;;;;;18.40;60.15;98473.08;88222;1274;79481;-73
2022/04/07 06:14:36;;;;;;;6.70;5.70;;;;;;;18.62;59.72;98474.27;88175;1274;83711;-73
2022/04/07 06:16:45;;;;;;;8.40;5.80;;;;;;;18.83;58.39;98468.31;88175;1274;99042;-72
2022/04/07 06:18:55;;;;;;;8.40;5.30;;;;;;;19.14;57.53;98465.66;88145;1276;88916;-73
2022/04/07 06:21:04;;;;;;;6.90;6.10;;;;;;;19.83;57.12;98463.34;88116;1276;95946;-72
2022/04/07 06:23:17;;;;;;;7.80;6.00;;;;;;;20.60;55.69;98465.67;88120;1276;78638;-73
2022/04/07 06:25:30;;;;;;;8.90;5.80;;;;;;;21.21;55.11;98463.35;88225;1274;82143;-72
2022/04/07 06:27:41;;;;;;;7.30;5.80;;;;;;;21.29;53.74;98463.80;88179;1274;98138;-73
2022/04/07 06:29:50;;;;;;;6.50;5.50;;;;;;;21.15;52.34;98461.48;88140;1276;89360;-73
2022/04/07 06:32:02;;;;;;;8.40;5.70;;;;;;;21.02;52.42;98457.83;88111;1276;95071;-72
2022/04/07 06:34:11;;;;;;;10.90;6.30;;;;;;;21.22;51.86;98453.22;88176;1274;79100;-72
2022/04/07 06:36:23;;;;;;;7.50;5.30;;;;;;;21.49;51.88;98449.35;88194;1274;82219;-72
2022/04/07 06:38:35;;;;;;;6.90;5.50;;;;;;;22.24;50.69;98447.05;88216;1274;98864;-72
2022/04/07 06:40:45;;;;;;;5.60;4.80;;;;;;;23.21;50.00;98447.57;88199;1274;89307;-71
2022/04/07 06:42:56;;;;;;;6.10;4.80;;;;;;;24.13;49.89;98437.50;88127;1276;95013;-73
2022/04/07 06:45:07;;;;;;;8.50;5.60;;;;;;;24.82;47.61;98437.20;88168;1274;78190;-71
2022/04/07 06:47:16;;;;;;;6.70;4.80;;;;;;;25.11;47.05;98437.35;88179;1274;82932;-72
2022/04/07 06:49:25;;;;;;;7.50;5.40;;;;;;;25.04;46.52;98434.73;88209;1274;98336;-72
2022/04/07 06:51:36;;;;;;;7.60;5.00;;;;;;;24.93;45.11;98433.26;88182;1274;88931;-72
2022/04/07 06:53:46;;;;;;;6.30;5.20;;;;;;;25.26;44.73;98431.21;88206;1274;95080;-70
2022/04/07 06:55:58;;;;;;;8.80;5.10;;;;;;;25.59;43.42;98425.79;88195;1274;77941;-72
2022/04/07 06:58:11;;;;;;;6.10;4.90;;;;;;;26.11;43.19;98420.68;88216;1274;81558;-72
2022/04/07 07:00:22;;;;;;;6.80;4.90;;;;;;;26.42;42.53;98422.02;88187;1274;99313;-71
2022/04/07 07:02:31;;;;;;;5.60;4.50;;;;;;;26.98;42.11;98422.08;88230;1274;87281;-72
2022/04/07 07:04:40;;;;;;;6.20;5.10;;;;;;;27.63;41.04;98421.45;88090;1277;94147;-71
2022/04/07 07:06:49;;;;;;;6.20;4.80;;;;;;;28.39;40.79;98424.80;88095;1277;79925;-74
2022/04/07 07:08:59;;;;;;;5.30;4.60;;;;;;;28.72;40.06;98426.91;88087;1277;81987;-70
2022/04/07 07:11:11;;;;;;;7.40;5.70;;;;;;;28.73;37.01;98419.70;88092;1277;98274;-72
2022/04/07 07:13:23;;;;;;;6.10;5.40;;;;;;;28.21;37.62;98423.46;88117;1277;89930;-72
2022/04/07 07:15:32;;;;;;;6.60;4.40;;;;;;;27.79;34.27;98428.29;88071;1277;94722;-74
2022/04/07 07:17:45;;;;;;;5.70;4.60;;;;;;;26.92;35.77;98435.09;88053;1277;78158;-72
2022/04/07 07:19:54;;;;;;;6.10;4.60;;;;;;;26.60;36.77;98436.24;88089;1277;82520;-72
2022/04/07 07:22:08;;;;;;;6.70;4.00;;;;;;;26.59;37.39;98429.97;88097;1276;99549;-70
2022/04/07 07:24:17;;;;;;;6.70;4.00;;;;;;;26.50;37.63;98426.90;88098;1277;89410;-71
2022/04/07 07:26:26;;;;;;;6.20;4.60;;;;;;;25.77;37.16;98425.42;88080;1277;96022;-70
2022/04/07 07:28:35;;;;;;;7.10;4.80;;;;;;;24.90;37.17;98423.50;88066;1277;77770;-72
2022/04/07 07:30:45;;;;;;;7.90;4.80;;;;;;;24.42;37.58;98423.63;88101;1277;82667;-72
2022/04/07 07:32:55;;;;;;;6.60;4.20;;;;;;;24.19;38.42;98418.94;88097;1277;97578;-71
2022/04/07 07:35:09;;;;;;;6.10;5.00;;;;;;;23.68;37.10;98424.40;88120;1277;88431;-72
2022/04/07 07:37:21;;;;;;;5.40;4.30;;;;;;;23.14;37.82;98425.73;88086;1277;94920;-72
2022/04/07 07:39:30;;;;;;;7.00;4.70;;;;;;;23.14;38.28;98419.88;88110;1277;80634;-71
2022/04/07 07:41:40;;;;;;;5.80;4.50;;;;;;;23.30;38.38;98422.77;88111;1277;82264;-71
2022/04/07 07:43:49;;;;;;;5.60;4.30;;;;;;;22.90;37.69;98424.02;88096;1277;99870;-72
2022/04/07 07:45:58;;;;;;;9.70;5.00;;;;;;;22.31;38.00;98421.38;88108;1277;88902;-72
2022/04/07 07:48:08;;;;;;;5.50;4.50;;;;;;;22.02;38.28;98417.77;88060;1277;94545;-71
2022/04/07 07:50:20;;;;;;;5.90;4.30;;;;;;;21.89;38.94;98412.10;88076;1277;81314;-71
2022/04/07 07:52:29;;;;;;;6.40;4.30;;;;;;;22.11;39.81;98415.06;88136;1277;81118;-72
2022/04/07 07:54:38;;;;;;;5.80;4.30;;;;;;;22.76;40.08;98415.83;88126;1277;97288;-69
2022/04/07 07:56:47;;;;;;;5.00;4.30;;;;;;;23.38;39.60;98419.96;88094;1276;89079;-72
2022/04/07 07:58:56;;;;;;;6.60;4.50;;;;;;;23.18;39.52;98419.92;88087;1277;95781;-71
2022/04/07 08:01:08;;;;;;;6.10;3.90;;;;;;;23.23;39.33;98417.30;88075;1277;78320;-71
2022/04/07 08:03:21;;;;;;;5.60;3.80;;;;;;;23.32;38.73;98415.40;88094;1276;83025;-70
2022/04/07 08:05:30;;;;;;;5.90;3.70;;;;;;;23.78;38.42;98416.11;88147;1276;99525;-71
2022/04/07 08:07:44;;;;;;;7.10;4.00;;;;;;;24.62;38.97;98421.86;88107;1276;88830;-70
2022/04/07 08:09:55;;;;;;;5.10;3.30;;;;;;;24.88;36.72;98418.21;88144;1276;95642;-71
2022/04/07 08:12:04;;;;;;;7.80;3.90;;;;;;;25.02;36.45;98413.81;88101;1276;78401;-71
2022/04/07 08:14:13;;;;;;;5.40;3.90;;;;;;;25.19;37.16;98416.23;88142;1276;81868;-71
2022/04/07 08:16:23;;;;;;;7.60;3.90;;;;;;;25.65;35.68;98413.31;88203;1274;99668;-72
2022/04/07 08:18:32;;;;;;;5.70;3.90;;;;;;;25.78;35.10;98411.21;88203;1274;87456;-74
2022/04/07 08:20:42;;;;;;;6.10;3.90;;;;;;;25.94;35.50;98406.98;88132;1276;94434;-72
2022/04/07 08:22:54;;;;;;;4.70;3.80;;;;;;;26.36;35.60;98411.67;88154;1276;80036;-70
2022/04/07 08:25:03;;;;;;;5.50;3.80;;;;;;;26.88;36.18;98410.27;88134;1276;82341;-70
2022/04/07 08:27:14;;;;;;;5.60;4.40;;;;;;;27.12;34.33;98407.37;88154;1276;99039;-71
2022/04/07 08:29:23;;;;;;;9.00;5.80;;;;;;;26.92;33.66;98410.58;88195;1274;88829;-68
2022/04/07 08:31:32;;;;;;;5.40;4.10;;;;;;;26.84;33.42;98408.73;88113;1276;95720;-69
2022/04/07 08:33:41;;;;;;;5.60;4.40;;;;;;;26.90;33.29;98409.86;88122;1276;77207;-66
2022/04/07 08:35:52;;;;;;;5.80;4.50;;;;;;;26.96;33.61;98413.63;88205;1274;83421;-70
2022/04/07 08:38:01;;;;;;;4.40;3.90;;;;;;;26.53;32.87;98410.28;88204;1274;98019;-71
2022/04/07 08:40:12;;;;;;;6.90;4.50;;;;;;;25.66;32.06;98403.91;88190;1274;87644;-71
2022/04/07 08:42:23;;;;;;;5.50;4.40;;;;;;;24.94;33.25;98408.26;88201;1274;92944;-70
2022/04/07 08:44:33;;;;;;;5.60;4.40;;;;;;;24.78;34.18;98406.38;88123;1276;80192;-71
2022/04/07 08:46:49;;;;;;;5.40;4.10;;;;;;;24.83;34.46;98402.61;88225;1274;82097;-72
2022/04/07 08:49:00;;;;;;;6.00;4.40;;;;;;;24.94;34.53;98397.70;88201;1274;98762;-69
2022/04/07 08:51:10;;;;;;;5.50;4.40;;;;;;;25.40;34.60;98400.13;88188;1274;88780;-71
2022/04/07 08:53:19;;;;;;;5.80;4.60;;;;;;;25.85;34.68;98394.78;88232;1274;93769;-72
2022/04/07 08:55:27;;;;;;;5.50;4.30;;;;;;;26.17;34.60;98393.02;88181;1274;79501;-72
2022/04/07 08:57:38;;;;;;;5.40;4.10;;;;;;;26.82;34.41;98394.36;88211;1274;82316;-71
2022/04/07 08:59:47;;;;;;;6.40;3.90;;;;;;;27.45;33.99;98391.81;88181;1274;98050;-70
2022/04/07 09:02:03;;;;;;;5.50;4.80;;;;;;;27.53;32.60;98388.91;88196;1274;87777;-70
2022/04/07 09:04:15;;;;;;;6.60;4.90;;;;;;;27.82;33.21;98379.86;88184;1274;94381;-72
2022/04/07 09:06:28;;;;;;;7.10;4.70;;;;;;;28.16;32.05;98379.21;88181;1274;80710;-73
2022/04/07 09:08:41;;;;;;;5.20;4.10;;;;;;;28.07;32.03;98376.42;88202;1274;81721;-73
2022/04/07 09:10:58;;;;;;;5.80;4.40;;;;;;;27.93;31.77;98374.98;88186;1274;98588;-72
2022/04/07 09:13:11;;;;;;;6.10;4.60;;;;;;;27.31;31.08;98384.77;88196;1274;89672;-71
2022/04/07 09:15:28;;;;;;;6.40;4.90;;;;;;;27.00;31.52;98379.00;88174;1274;95657;-69
2022/04/07 09:17:52;;;;;;;4.70;4.10;;;;;;;27.21;32.12;98373.11;88186;1274;79003;-70
2022/04/07 09:20:00;;;;;;;7.10;4.60;;;;;;;27.27;31.50;98374.18;88212;1274;82740;-71
2022/04/07 09:22:13;;;;;;;5.10;4.50;;;;;;;27.42;31.87;98366.84;88197;1274;99860;-71
2022/04/07 09:24:28;;;;;;;6.30;4.80;;;;;;;27.75;31.84;98355.07;88215;1274;89179;-70
2022/04/07 09:26:41;;;;;;;5.90;5.00;;;;;;;27.96;31.67;98354.02;88200;1274;95554;-70
2022/04/07 09:28:50;;;;;;;5.70;5.00;;;;;;;27.89;30.81;98349.06;88199;1274;78605;-78
2022/04/07 09:31:03;;;;;;;6.70;5.00;;;;;;;27.38;31.43;98341.96;88135;1276;81519;-69
2022/04/07 09:33:23;;;;;;;6.00;5.00;;;;;;;26.96;31.37;98341.70;88147;1276;99791;-71
2022/04/07 09:35:55;;;;;;;6.60;4.70;;;;;;;26.32;30.72;98341.47;88173;1276;89154;-69
2022/04/07 09:38:07;;;;;;;5.60;4.50;;;;;;;25.39;31.95;98343.48;88112;1276;95731;-70
2022/04/07 09:40:19;;;;;;;5.40;4.90;;;;;;;25.00;32.15;98334.87;88209;1274;77888;-71
2022/04/07 09:42:33;;;;;;;7.30;5.30;;;;;;;24.69;32.80;98333.17;88213;1274;83536;-69
2022/04/07 09:44:45;;;;;;;6.40;4.80;;;;;;;24.47;33.10;98331.25;88185;1274;100055;-76
2022/04/07 09:46:59;;;;;;;5.30;4.60;;;;;;;23.96;32.92;98326.94;88120;1277;90634;-73
2022/04/07 09:49:12;;;;;;;6.10;4.60;;;;;;;23.47;33.83;98328.30;88131;1276;93113;-75
2022/04/07 09:51:21;;;;;;;5.90;5.10;;;;;;;22.99;34.10;98327.15;88153;1276;78749;-76
2022/04/07 09:53:35;;;;;;;5.90;4.80;;;;;;;22.58;34.60;98315.44;88233;1276;80341;-75
2022/04/07 09:55:46;;;;;;;7.90;5.10;;;;;;;22.49;35.23;98316.02;88210;1274;97019;-77
2022/04/07 09:57:55;;;;;;;5.20;4.10;;;;;;;22.57;35.74;98308.27;88186;1276;87722;-78
2022/04/07 10:00:09;;;;;;;8.00;4.20;;;;;;;22.67;35.99;98313.13;88182;1274;95862;-77
2022/04/07 10:02:19;;;;;;;6.70;4.60;;;;;;;22.48;35.93;98306.71;88203;1274;79124;-76
2022/04/07 10:04:29;;;;;;;7.00;4.50;;;;;;;22.48;35.92;98301.69;88207;1274;81661;-76
2022/04/07 10:06:40;;;;;;;8.20;4.90;;;;;;;22.39;35.78;98293.85;88198;1274;99426;-75
2022/04/07 10:08:52;;;;;;;6.90;4.70;;;;;;;22.28;36.02;98296.30;88196;1274;87962;-76
2022/04/07 10:11:01;;;;;;;6.70;4.70;;;;;;;22.19;36.29;98291.30;88182;1274;95429;-73
2022/04/07 10:13:12;;;;;;;6.50;4.20;;;;;;;22.09;36.35;98292.52;88153;1276;78143;-77
2022/04/07 10:15:21;;;;;;;5.60;4.10;;;;;;;21.85;36.57;98284.06;88162;1276;82146;-76